Enter the Airport ICAO Code

Search by Airport or City

Current Weather

GCFV | Fuerteventura Airport

Fuerteventura, Canary Islands, Spain

Last Update 17 Minutes Ago

Sky with Few Clouds

Temperature of 25 ºC

Moderate to Strong Winds from NorthEast

Temperature

25 ºC

Dew Point Temperature

20 ºC

Relative Humidity

73.94 %

Wind Direction

NorthEast (050º, Without Significant Variations)

Wind Velocity

30 km/h (16 kt)

Gusts

None

Visibility

Greater than 10 Kilometers

Sea Level Pressure

1017 hPa (Hectopascals)

Layers of Clouds

5% to 30% of Sky Covered from 610 mts (2000 ft) Above Ground Level.

METAR GCFV 131200Z 05016KT 9999 FEW020 25/20 Q1017

Weather Forecast

GCFV | Fuerteventura Airport

Fuerteventura, Canary Islands, Spain

Forecast valid for the next 21 Hours

From now on it is expected:

Sky with Few Clouds

Moderate Winds from NorthEast

In 6 to 8 hours it is expected the begining of:

Moderate Winds from North

Maximum Temperature

26 ºC in 1 Hour

Minimum Temperature

21 ºC in 18 Hours

TAF GCFV 130800Z 1309/1409 05013KT 9999 FEW015 TX26/1313Z TN21/1406Z BECMG 1318/1320 35010KT